Time;durP1;ratioP1;P1;durP2;ratioP2;P2;SDS_P1;SDS_P2;PMS_P1;PMS_P2;Temp;Humidity;BMP_temperature;BMP_pressure;BME280_temperature;BME280_humidity;BME280_pressure;Samples;Min_cycle;Max_cycle;Signal;HPM_P1;HPM_P2
2023/11/06 00:01:53;;;;;;;8.27;4.20;;;10.50;99.90;;;;;;4990986;28;20229;-72
2023/11/06 00:04:20;;;;;;;6.78;3.35;;;10.50;99.90;;;;;;4979181;28;20222;-74
2023/11/06 00:06:48;;;;;;;6.78;3.75;;;10.50;99.90;;;;;;4988755;28;20553;-73
2023/11/06 00:09:16;;;;;;;5.60;3.60;;;10.50;99.90;;;;;;4986647;28;20294;-72
2023/11/06 00:11:44;;;;;;;8.93;3.75;;;10.50;99.90;;;;;;4975224;28;20285;-74
2023/11/06 00:14:12;;;;;;;12.57;4.18;;;10.50;99.90;;;;;;4975887;28;20730;-75
2023/11/06 00:16:39;;;;;;;7.75;3.85;;;10.50;99.90;;;;;;4984054;28;20218;-73
2023/11/06 00:19:06;;;;;;;6.25;2.85;;;10.50;99.90;;;;;;4990091;28;20217;-74
2023/11/06 00:21:33;;;;;;;11.02;2.90;;;10.50;99.90;;;;;;4979882;28;20202;-72
2023/11/06 00:24:01;;;;;;;8.50;3.92;;;10.50;99.90;;;;;;4975009;28;20224;-70
2023/11/06 00:26:29;;;;;;;8.52;3.38;;;10.50;99.90;;;;;;4980361;28;20226;-68
2023/11/06 00:28:56;;;;;;;7.22;3.10;;;10.50;99.90;;;;;;4984401;28;20214;-72
2023/11/06 00:31:23;;;;;;;4.88;2.95;;;10.50;99.90;;;;;;4977113;28;20210;-72
2023/11/06 00:33:52;;;;;;;8.15;3.10;;;10.50;99.90;;;;;;4991543;28;20234;-74
2023/11/06 00:36:20;;;;;;;4.88;2.60;;;10.50;99.90;;;;;;4984553;28;20273;-71
2023/11/06 00:38:47;;;;;;;6.18;3.28;;;10.50;99.90;;;;;;4983352;28;20237;-70
2023/11/06 00:41:15;;;;;;;8.88;3.15;;;10.50;99.90;;;;;;4989818;28;20287;-73
2023/11/06 00:43:42;;;;;;;7.00;3.58;;;10.50;99.90;;;;;;4987094;28;20320;-71
2023/11/06 00:46:09;;;;;;;8.98;5.13;;;10.50;99.90;;;;;;4983776;28;20207;-74
2023/11/06 00:48:37;;;;;;;4.50;3.05;;;10.50;99.90;;;;;;4985864;28;20237;-72
2023/11/06 00:51:04;;;;;;;6.30;3.10;;;10.50;99.90;;;;;;4991818;28;20229;-74
2023/11/06 00:53:31;;;;;;;11.73;3.47;;;10.50;99.90;;;;;;4993515;28;20225;-72
2023/11/06 00:55:58;;;;;;;6.13;3.30;;;10.50;99.90;;;;;;4993326;28;20207;-73
2023/11/06 00:58:27;;;;;;;6.55;3.00;;;10.50;99.90;;;;;;4988983;28;20210;-71
2023/11/06 01:00:55;;;;;;;5.45;3.50;;;10.50;99.90;;;;;;4993889;28;20683;-71
2023/11/06 01:03:22;;;;;;;4.68;3.22;;;10.50;99.90;;;;;;4992617;28;20230;-73
2023/11/06 01:05:49;;;;;;;11.52;3.85;;;10.40;99.90;;;;;;4995477;28;20321;-73
2023/11/06 01:08:15;;;;;;;7.90;3.33;;;10.40;99.90;;;;;;4995590;28;20203;-72
2023/11/06 01:10:42;;;;;;;12.02;4.18;;;10.30;99.90;;;;;;4994603;28;20225;-72
2023/11/06 01:13:11;;;;;;;10.27;3.60;;;10.30;99.90;;;;;;4995245;28;20648;-71
2023/11/06 01:15:42;;;;;;;9.55;4.20;;;10.20;99.90;;;;;;5002898;28;20197;-75
2023/11/06 01:18:09;;;;;;;5.90;3.67;;;10.20;99.90;;;;;;4997074;28;20271;-70
2023/11/06 01:20:36;;;;;;;17.17;4.90;;;10.20;99.90;;;;;;4995361;28;20233;-70
2023/11/06 01:23:03;;;;;;;6.65;4.57;;;10.10;99.90;;;;;;5000664;28;20234;-71
2023/11/06 01:25:30;;;;;;;6.32;4.35;;;10.10;99.90;;;;;;5001084;28;20561;-72
2023/11/06 01:27:58;;;;;;;6.40;3.88;;;10.10;99.90;;;;;;4995747;28;20263;-75
2023/11/06 01:30:25;;;;;;;9.70;4.45;;;10.00;99.90;;;;;;4997953;28;20232;-71
2023/11/06 01:32:53;;;;;;;6.43;4.03;;;10.00;99.90;;;;;;4997937;28;20206;-73
2023/11/06 01:35:21;;;;;;;9.43;4.57;;;10.00;99.90;;;;;;4996453;28;20714;-75
2023/11/06 01:37:49;;;;;;;11.60;3.63;;;10.00;99.90;;;;;;4995316;28;20228;-72
2023/11/06 01:40:16;;;;;;;6.22;3.72;;;10.00;99.90;;;;;;4998067;28;20216;-71
2023/11/06 01:42:42;;;;;;;9.60;5.22;;;9.90;99.90;;;;;;4998791;28;20209;-75
2023/11/06 01:45:12;;;;;;;10.40;4.10;;;9.90;99.90;;;;;;4992594;28;20313;-75
2023/11/06 01:47:39;;;;;;;15.00;5.18;;;9.90;99.90;;;;;;4990889;28;20210;-75
2023/11/06 01:50:08;;;;;;;6.85;4.40;;;9.90;99.90;;;;;;4999407;28;20309;-74
2023/11/06 01:52:36;;;;;;;9.32;3.72;;;9.80;99.90;;;;;;4989032;28;20201;-70
2023/11/06 01:55:03;;;;;;;3.90;2.92;;;9.80;99.90;;;;;;4994648;28;20231;-73
2023/11/06 01:57:31;;;;;;;6.68;3.65;;;9.80;99.90;;;;;;4991029;28;20297;-72
2023/11/06 01:59:58;;;;;;;5.57;4.13;;;9.80;99.90;;;;;;4993354;28;20675;-71
2023/11/06 02:02:27;;;;;;;8.13;3.50;;;9.80;99.90;;;;;;5000391;28;20731;-72
2023/11/06 02:04:54;;;;;;;5.57;3.15;;;9.90;99.90;;;;;;4989395;28;20720;-74
2023/11/06 02:07:22;;;;;;;7.38;3.10;;;9.90;99.90;;;;;;4988782;28;20567;-70
2023/11/06 02:09:49;;;;;;;4.40;3.38;;;9.90;99.90;;;;;;4994693;28;20566;-71
2023/11/06 02:12:16;;;;;;;8.50;3.40;;;9.90;99.90;;;;;;4995637;28;20292;-71
2023/11/06 02:14:50;;;;;;;11.43;3.72;;;9.90;99.90;;;;;;4993244;28;20277;-72
2023/11/06 02:17:17;;;;;;;7.40;3.72;;;9.90;99.90;;;;;;4995295;28;20210;-70
2023/11/06 02:19:44;;;;;;;5.88;3.67;;;9.90;99.90;;;;;;4994675;28;20688;-70
2023/11/06 02:22:12;;;;;;;6.20;3.50;;;10.00;99.90;;;;;;4994222;28;20338;-74
2023/11/06 02:24:41;;;;;;;4.45;3.33;;;10.00;99.90;;;;;;4994643;28;20639;-74
2023/11/06 02:27:08;;;;;;;6.72;3.70;;;10.00;99.90;;;;;;4990335;28;20289;-74
2023/11/06 02:29:35;;;;;;;6.15;4.40;;;10.00;99.90;;;;;;4994106;28;20216;-72
2023/11/06 02:32:02;;;;;;;5.15;4.25;;;10.00;99.90;;;;;;4992836;28;20226;-74
2023/11/06 02:34:29;;;;;;;8.57;3.90;;;10.00;99.90;;;;;;4992343;28;20245;-74
2023/11/06 02:36:56;;;;;;;9.85;3.33;;;9.90;99.90;;;;;;4989260;28;20288;-73
2023/11/06 02:39:24;;;;;;;9.32;3.80;;;9.90;99.90;;;;;;4989497;28;20227;-74
2023/11/06 02:41:53;;;;;;;6.32;4.00;;;9.80;99.90;;;;;;4986318;28;20228;-73
2023/11/06 02:44:20;;;;;;;12.00;4.88;;;9.80;99.90;;;;;;4982160;28;20230;-73
2023/11/06 02:46:47;;;;;;;5.57;5.00;;;9.80;99.90;;;;;;4981195;28;20223;-72
2023/11/06 02:49:14;;;;;;;5.60;5.03;;;9.80;99.90;;;;;;4986278;28;20202;-72
2023/11/06 02:51:41;;;;;;;5.70;4.65;;;9.70;99.90;;;;;;4982921;28;20225;-72
2023/11/06 02:54:08;;;;;;;6.97;5.18;;;9.70;99.90;;;;;;4984162;28;20313;-71
2023/11/06 02:56:35;;;;;;;10.32;5.15;;;9.70;99.90;;;;;;4981508;28;20217;-73
2023/11/06 02:59:05;;;;;;;7.85;4.80;;;9.70;99.90;;;;;;4993400;28;20209;-73
2023/11/06 03:01:32;;;;;;;7.13;5.30;;;9.70;99.90;;;;;;4985196;28;20203;-70
2023/11/06 03:04:00;;;;;;;8.00;5.05;;;9.70;99.90;;;;;;4985822;28;20222;-74
2023/11/06 03:06:28;;;;;;;8.02;5.72;;;9.70;99.90;;;;;;4984656;28;20583;-70
2023/11/06 03:08:55;;;;;;;12.68;5.85;;;9.70;99.90;;;;;;4983751;28;20236;-72
2023/11/06 03:11:22;;;;;;;8.20;5.93;;;9.70;99.90;;;;;;4987680;28;20221;-70
2023/11/06 03:13:50;;;;;;;9.32;6.80;;;9.70;99.90;;;;;;4992595;28;20276;-74
2023/11/06 03:16:18;;;;;;;6.47;5.50;;;9.70;99.90;;;;;;4995976;28;20648;-72
2023/11/06 03:18:45;;;;;;;9.57;6.60;;;9.80;99.90;;;;;;4989085;28;20224;-75
2023/11/06 03:21:12;;;;;;;10.20;6.68;;;9.80;99.90;;;;;;4985451;28;20205;-72
2023/11/06 03:23:39;;;;;;;12.52;7.43;;;9.80;99.90;;;;;;4976192;28;20224;-74
2023/11/06 03:26:06;;;;;;;13.65;7.45;;;9.80;99.90;;;;;;4986100;28;20261;-71
2023/11/06 03:28:34;;;;;;;16.17;7.05;;;9.80;99.90;;;;;;4983312;28;20574;-73
2023/11/06 03:31:01;;;;;;;9.65;6.72;;;9.90;99.90;;;;;;4982145;28;20313;-72
2023/11/06 03:33:29;;;;;;;9.27;6.80;;;9.90;99.90;;;;;;4977328;28;20222;-72
2023/11/06 03:35:56;;;;;;;11.40;8.48;;;9.90;99.90;;;;;;4988194;28;20217;-73
2023/11/06 03:38:24;;;;;;;10.65;7.30;;;10.00;99.90;;;;;;4988690;28;20296;-75
2023/11/06 03:40:50;;;;;;;11.30;7.15;;;10.00;99.90;;;;;;4984623;28;20198;-71
2023/11/06 03:43:17;;;;;;;11.43;7.63;;;10.10;99.90;;;;;;4982004;28;20697;-69
2023/11/06 03:45:44;;;;;;;11.63;8.70;;;10.10;99.90;;;;;;4982541;28;20575;-71
2023/11/06 03:48:12;;;;;;;9.23;7.68;;;10.20;99.90;;;;;;4982049;28;20284;-71
2023/11/06 03:50:43;;;;;;;10.52;7.57;;;10.30;99.90;;;;;;4980965;28;20227;-74
2023/11/06 03:53:10;;;;;;;8.23;7.38;;;10.30;99.90;;;;;;4980933;28;20754;-70
2023/11/06 03:55:39;;;;;;;7.82;6.95;;;10.30;99.90;;;;;;5007370;23;20323;-78
2023/11/06 03:58:07;;;;;;;11.85;9.00;;;10.40;99.90;;;;;;5015206;28;20233;-80
2023/11/06 04:00:35;;;;;;;10.02;7.30;;;10.30;99.90;;;;;;5007781;28;20204;-79
2023/11/06 04:03:04;;;;;;;8.07;7.32;;;10.30;99.90;;;;;;4999845;28;20203;-79
2023/11/06 04:05:31;;;;;;;8.25;7.25;;;10.40;99.90;;;;;;5012462;28;20201;-77
2023/11/06 04:07:59;;;;;;;10.82;8.38;;;10.30;99.90;;;;;;5018970;28;20267;-77
2023/11/06 04:10:26;;;;;;;9.73;6.85;;;10.30;99.90;;;;;;5009945;28;20230;-78
2023/11/06 04:12:54;;;;;;;13.35;8.00;;;10.30;99.90;;;;;;5001757;28;20673;-78
2023/11/06 04:15:21;;;;;;;10.27;7.15;;;10.40;99.90;;;;;;5010557;28;20211;-78
2023/11/06 04:17:48;;;;;;;10.63;8.13;;;10.40;99.90;;;;;;5014497;28;20231;-78
2023/11/06 04:20:15;;;;;;;10.85;7.70;;;10.40;99.90;;;;;;5000343;28;20644;-80
2023/11/06 04:22:41;;;;;;;9.45;8.05;;;10.40;99.90;;;;;;4995304;28;20205;-78
2023/11/06 04:25:10;;;;;;;9.63;6.75;;;10.40;99.90;;;;;;5021429;28;20635;-78
2023/11/06 04:27:37;;;;;;;10.52;6.85;;;10.40;99.90;;;;;;5020551;28;20200;-79
2023/11/06 04:30:04;;;;;;;14.27;7.93;;;10.40;99.90;;;;;;5029051;28;20239;-79
2023/11/06 04:32:31;;;;;;;13.52;7.05;;;10.40;99.90;;;;;;5025529;28;20248;-79
2023/11/06 04:34:59;;;;;;;11.13;7.28;;;10.40;99.90;;;;;;5028144;28;20210;-80
2023/11/06 04:37:26;;;;;;;14.07;7.32;;;10.50;99.90;;;;;;5019613;28;20212;-79
2023/11/06 04:39:53;;;;;;;14.20;6.88;;;10.40;99.90;;;;;;5025698;28;20686;-79
2023/11/06 04:42:21;;;;;;;12.20;6.63;;;10.40;99.90;;;;;;5026295;28;20264;-78
2023/11/06 04:44:48;;;;;;;14.75;6.75;;;10.30;99.90;;;;;;5012587;28;20290;-79
2023/11/06 04:47:15;;;;;;;10.65;6.88;;;10.30;99.90;;;;;;5023856;28;20244;-78
2023/11/06 04:49:41;;;;;;;7.68;6.18;;;10.30;99.90;;;;;;5017465;28;20234;-79
2023/11/06 04:52:08;;;;;;;8.48;6.80;;;10.30;99.90;;;;;;5025153;28;20305;-79
2023/11/06 04:54:35;;;;;;;8.23;7.30;;;10.20;99.90;;;;;;5027618;28;20229;-78
2023/11/06 04:57:02;;;;;;;8.07;6.72;;;10.20;99.90;;;;;;5018177;28;20268;-79
2023/11/06 04:59:31;;;;;;;8.95;7.15;;;10.20;99.90;;;;;;5018384;28;20225;-78
2023/11/06 05:01:57;;;;;;;10.27;7.10;;;10.10;99.90;;;;;;5015632;28;20345;-80
2023/11/06 05:04:25;;;;;;;8.30;7.50;;;10.10;99.90;;;;;;5025469;28;20206;-79
2023/11/06 05:06:52;;;;;;;13.43;7.75;;;10.10;99.90;;;;;;5014513;28;20216;-79
2023/11/06 05:09:20;;;;;;;10.80;8.80;;;9.90;99.90;;;;;;5019275;28;20274;-77
2023/11/06 05:11:46;;;;;;;9.57;7.55;;;10.10;99.90;;;;;;5023512;28;20586;-77
2023/11/06 05:14:13;;;;;;;8.45;7.55;;;10.10;99.90;;;;;;5013732;28;20296;-78
2023/11/06 05:16:42;;;;;;;10.20;7.75;;;10.10;99.90;;;;;;5023091;28;20263;-78
2023/11/06 05:19:08;;;;;;;12.45;8.25;;;10.00;99.90;;;;;;5024302;28;20276;-78
2023/11/06 05:21:35;;;;;;;13.18;7.30;;;10.10;99.90;;;;;;5028375;28;20200;-77
2023/11/06 05:24:02;;;;;;;11.43;7.90;;;10.00;99.90;;;;;;5033002;28;20245;-78
2023/11/06 05:26:29;;;;;;;10.85;8.57;;;10.00;99.90;;;;;;5030209;28;20357;-78
2023/11/06 05:28:57;;;;;;;7.93;7.22;;;10.00;99.90;;;;;;5021704;28;20695;-78
2023/11/06 05:31:24;;;;;;;12.55;9.10;;;10.00;99.90;;;;;;5025109;28;20225;-78
2023/11/06 05:33:52;;;;;;;15.48;8.52;;;9.80;99.90;;;;;;5024537;28;20248;-79
2023/11/06 05:36:19;;;;;;;9.05;7.25;;;9.90;99.90;;;;;;5025965;28;20228;-77
2023/11/06 05:38:46;;;;;;;11.57;7.63;;;9.90;99.90;;;;;;5029958;28;20263;-77
2023/11/06 05:41:20;;;;;;;10.60;7.47;;;9.90;99.90;;;;;;5034719;28;20213;-78
2023/11/06 05:43:49;;;;;;;11.60;7.25;;;9.80;99.90;;;;;;5024152;28;20240;-79
2023/11/06 05:46:24;;;;;;;7.82;7.05;;;9.90;99.90;;;;;;5023589;28;20201;-79
2023/11/06 05:48:58;;;;;;;12.05;7.13;;;10.10;99.90;;;;;;5023685;28;20279;-77
2023/11/06 05:51:25;;;;;;;10.00;6.93;;;10.10;99.90;;;;;;5020672;28;20303;-81
2023/11/06 05:53:52;;;;;;;11.75;7.45;;;10.10;99.90;;;;;;5026516;28;20213;-86
2023/11/06 05:56:44;;;;;;;10.15;6.93;;;10.10;99.90;;;;;;5031274;28;20281;-85
2023/11/06 05:59:36;;;;;;;13.45;7.20;;;10.30;99.90;;;;;;5030803;28;20233;-86
2023/11/06 06:02:06;;;;;;;6.70;5.93;;;10.20;99.90;;;;;;5019461;28;20215;-85
2023/11/06 06:04:54;;;;;;;10.55;6.88;;;10.30;99.90;;;;;;5021056;28;20211;-81
2023/11/06 06:07:21;;;;;;;11.57;6.95;;;10.30;99.90;;;;;;5026465;28;20214;-83
2023/11/06 06:09:48;;;;;;;11.57;8.23;;;10.30;99.90;;;;;;5015601;28;20205;-79
2023/11/06 06:12:14;;;;;;;9.15;6.80;;;10.30;99.90;;;;;;5005936;28;20218;-78
2023/11/06 06:14:41;;;;;;;9.98;6.88;;;10.30;99.90;;;;;;5015775;28;20240;-79
2023/11/06 06:17:08;;;;;;;15.32;6.22;;;10.30;99.90;;;;;;5009670;28;20268;-79
2023/11/06 06:19:35;;;;;;;12.15;5.95;;;10.30;99.90;;;;;;5008219;28;20314;-76
2023/11/06 06:22:03;;;;;;;6.93;6.00;;;10.40;99.90;;;;;;5001117;28;20205;-78
2023/11/06 06:24:30;;;;;;;7.63;6.18;;;10.40;99.90;;;;;;5011827;28;20292;-78
2023/11/06 06:26:57;;;;;;;8.32;6.25;;;10.40;99.90;;;;;;5010037;28;20206;-77
2023/11/06 06:29:24;;;;;;;15.05;7.50;;;10.40;99.90;;;;;;5003192;28;20232;-78
2023/11/06 06:31:53;;;;;;;6.80;5.95;;;10.40;99.90;;;;;;5010111;28;20249;-79
2023/11/06 06:34:20;;;;;;;13.85;7.00;;;10.50;99.90;;;;;;5005796;28;20662;-78
2023/11/06 06:47:17;;;;;;;10.88;6.78;;;10.50;99.90;;;;;;4904991;29;20257;-82
2023/11/06 06:52:59;;;;;;;9.60;6.05;;;10.60;99.90;;;;;;4907385;29;20954;-82
2023/11/06 06:55:26;;;;;;;7.70;6.20;;;10.60;99.90;;;;;;4901776;29;20273;-79
2023/11/06 06:58:32;;;;;;;11.25;6.90;;;10.60;99.90;;;;;;4981525;28;20307;-84
2023/11/06 07:01:22;;;;;;;10.63;7.38;;;10.70;99.90;;;;;;5027126;28;20205;-86
2023/11/06 07:03:51;;;;;;;17.17;6.93;;;10.70;99.90;;;;;;5019514;28;20218;-84
2023/11/06 07:06:19;;;;;;;15.07;8.20;;;10.70;99.90;;;;;;5018070;28;20211;-83
2023/11/06 07:08:46;;;;;;;11.32;6.90;;;10.70;99.90;;;;;;5018242;28;20289;-84
2023/11/06 07:11:13;;;;;;;12.60;6.40;;;10.70;99.90;;;;;;5018334;28;20218;-85
2023/11/06 07:13:45;;;;;;;9.18;6.95;;;10.80;99.90;;;;;;5020851;28;20531;-84
2023/11/06 07:16:13;;;;;;;9.50;6.93;;;10.80;99.90;;;;;;5032116;28;20191;-82
2023/11/06 07:18:39;;;;;;;10.57;7.60;;;10.90;99.90;;;;;;5023730;28;20207;-80
2023/11/06 07:21:08;;;;;;;12.40;6.90;;;10.80;99.90;;;;;;5030734;28;20234;-82
2023/11/06 07:23:35;;;;;;;9.50;6.43;;;10.80;99.90;;;;;;5022132;28;20196;-82
2023/11/06 07:26:03;;;;;;;12.43;6.95;;;10.90;99.90;;;;;;5035249;28;20183;-86
2023/11/06 07:28:31;;;;;;;20.13;9.10;;;10.90;99.90;;;;;;5025844;28;20313;-84
2023/11/06 07:31:03;;;;;;;8.63;5.85;;;11.00;99.90;;;;;;5029669;28;20234;-85
2023/11/06 07:33:45;;;;;;;9.98;6.82;;;11.00;99.90;;;;;;5030204;28;20207;-87
2023/11/06 07:36:13;;;;;;;14.18;7.05;;;11.00;99.90;;;;;;5030760;28;20209;-82
2023/11/06 07:38:40;;;;;;;8.60;7.68;;;10.90;99.90;;;;;;5018903;28;20289;-81
2023/11/06 07:41:32;;;;;;;10.68;7.57;;;11.00;99.90;;;;;;5012352;28;20311;-81
2023/11/06 07:44:01;;;;;;;17.08;7.93;;;11.00;99.90;;;;;;5012917;28;20214;-80
2023/11/06 07:46:27;;;;;;;10.80;7.60;;;11.00;99.90;;;;;;5012251;28;20241;-80
2023/11/06 07:48:54;;;;;;;9.90;7.18;;;11.10;99.90;;;;;;5010209;28;20327;-80
2023/11/06 07:58:57;;;;;;;9.25;7.00;;;11.20;99.90;;;;;;4906174;29;20309;-87
2023/11/06 08:01:24;;;;;;;10.52;6.25;;;11.20;99.90;;;;;;4933155;28;20219;-87
2023/11/06 08:03:51;;;;;;;13.23;7.00;;;11.20;99.90;;;;;;5018259;28;20231;-86
2023/11/06 08:06:18;;;;;;;10.48;7.32;;;11.20;99.90;;;;;;5017194;28;20243;-84
2023/11/06 08:08:46;;;;;;;12.88;7.22;;;11.20;99.90;;;;;;5016969;28;20257;-86
2023/11/06 08:11:13;;;;;;;8.18;6.90;;;11.30;99.90;;;;;;5021602;28;20222;-85
2023/11/06 08:13:40;;;;;;;10.27;7.18;;;11.30;99.90;;;;;;5019792;28;20681;-86
2023/11/06 08:16:08;;;;;;;13.85;6.40;;;11.40;99.90;;;;;;5020770;28;20270;-85
2023/11/06 08:18:35;;;;;;;8.52;7.18;;;11.30;99.90;;;;;;5022567;28;20236;-85
2023/11/06 08:21:02;;;;;;;13.02;6.57;;;11.30;99.90;;;;;;5024537;28;20265;-85
2023/11/06 08:23:30;;;;;;;9.25;6.32;;;11.30;99.90;;;;;;5026633;28;20202;-84
2023/11/06 08:25:58;;;;;;;8.75;5.57;;;11.30;99.90;;;;;;5029319;28;20208;-83
2023/11/06 08:28:30;;;;;;;9.88;5.65;;;11.30;99.90;;;;;;5030423;28;20531;-84
2023/11/06 08:30:57;;;;;;;8.35;5.53;;;11.40;99.90;;;;;;5023499;28;20215;-85
2023/11/06 08:33:24;;;;;;;9.90;5.70;;;11.40;99.90;;;;;;5036496;28;20247;-85
2023/11/06 08:35:51;;;;;;;8.05;5.30;;;11.40;99.90;;;;;;5035278;28;20203;-86
2023/11/06 08:38:18;;;;;;;11.52;5.75;;;11.40;99.90;;;;;;5023598;28;20576;-86
2023/11/06 08:40:45;;;;;;;14.05;5.05;;;11.40;99.90;;;;;;5019658;28;20697;-84
2023/11/06 08:43:13;;;;;;;10.45;5.88;;;11.30;99.90;;;;;;5021800;28;20228;-86
2023/11/06 08:45:40;;;;;;;8.90;5.55;;;11.40;99.90;;;;;;5008758;28;20273;-86
2023/11/06 08:48:07;;;;;;;11.15;5.25;;;11.40;99.90;;;;;;5022741;28;20242;-85
2023/11/06 08:50:34;;;;;;;8.57;5.57;;;11.40;99.90;;;;;;5025197;28;20208;-86
2023/11/06 08:53:03;;;;;;;13.57;6.22;;;11.40;99.90;;;;;;5020122;28;20603;-87
2023/11/06 08:55:29;;;;;;;9.55;5.03;;;11.40;99.90;;;;;;5024164;28;20204;-85
2023/11/06 08:57:56;;;;;;;15.70;6.22;;;11.40;99.90;;;;;;5025356;28;20221;-84
2023/11/06 09:00:40;;;;;;;8.48;5.68;;;11.50;99.90;;;;;;5021793;28;20208;-87
2023/11/06 09:03:09;;;;;;;13.90;5.28;;;11.50;99.90;;;;;;5025008;28;20543;-87
2023/11/06 09:05:36;;;;;;;5.45;4.55;;;11.50;99.90;;;;;;5017978;28;20208;-87
2023/11/06 09:08:03;;;;;;;7.80;4.50;;;11.50;99.90;;;;;;5016710;28;20259;-86
2023/11/06 09:13:17;;;;;;;11.02;4.30;;;11.40;99.90;;;;;;4969443;28;20216;-85
2023/11/06 09:15:47;;;;;;;7.68;3.35;;;11.60;99.90;;;;;;5019040;28;20282;-83
2023/11/06 09:18:16;;;;;;;4.82;2.47;;;11.50;99.90;;;;;;5022171;28;20228;-86
2023/11/06 09:20:43;;;;;;;9.52;3.15;;;11.50;99.90;;;;;;5016125;28;20207;-85
2023/11/06 09:23:10;;;;;;;7.75;3.65;;;11.60;99.90;;;;;;5024265;28;20207;-85
2023/11/06 09:25:37;;;;;;;3.25;2.22;;;11.70;99.90;;;;;;5033317;28;20270;-87
2023/11/06 09:28:04;;;;;;;2.97;1.80;;;11.60;99.90;;;;;;5025797;28;20253;-86
2023/11/06 09:30:31;;;;;;;7.43;2.72;;;11.60;99.90;;;;;;5025015;28;20257;-85
2023/11/06 09:33:00;;;;;;;6.25;1.95;;;11.60;99.90;;;;;;5021169;28;20230;-86
2023/11/06 09:35:28;;;;;;;2.28;1.80;;;11.70;99.90;;;;;;5039353;28;20226;-85
2023/11/06 09:37:55;;;;;;;3.38;2.10;;;11.70;99.90;;;;;;5025705;28;20280;-85
2023/11/06 09:40:23;;;;;;;4.30;1.80;;;11.70;99.90;;;;;;5032107;28;20235;-85
2023/11/06 09:42:50;;;;;;;5.15;2.20;;;11.80;99.90;;;;;;5027427;28;20247;-86
2023/11/06 09:45:17;;;;;;;7.03;2.85;;;12.00;99.90;;;;;;5035471;28;20461;-86
2023/11/06 09:47:52;;;;;;;6.93;2.70;;;12.20;99.90;;;;;;5029218;28;20239;-86
2023/11/06 09:50:23;;;;;;;2.95;1.70;;;12.10;99.90;;;;;;5025825;28;20206;-87
2023/11/06 09:52:51;;;;;;;5.80;2.03;;;12.20;99.90;;;;;;5036066;28;20285;-85
2023/11/06 09:55:19;;;;;;;4.63;1.95;;;12.10;99.90;;;;;;5020840;28;20259;-86
2023/11/06 09:57:47;;;;;;;7.80;2.13;;;12.00;99.90;;;;;;5012133;28;20232;-86
2023/11/06 10:00:17;;;;;;;9.32;2.60;;;12.10;99.90;;;;;;5026272;28;20682;-86
2023/11/06 10:02:44;;;;;;;3.47;1.85;;;11.90;99.90;;;;;;5029971;28;20239;-85
2023/11/06 10:05:15;;;;;;;4.35;1.60;;;11.90;99.90;;;;;;5026344;28;20204;-84
2023/11/06 10:07:45;;;;;;;11.32;2.45;;;12.10;99.90;;;;;;5019179;28;20228;-86
2023/11/06 10:10:14;;;;;;;4.65;2.90;;;12.10;99.90;;;;;;5028307;28;20212;-85
2023/11/06 10:12:41;;;;;;;9.45;2.20;;;12.20;99.90;;;;;;5032168;28;20259;-85
2023/11/06 10:15:11;;;;;;;8.02;3.35;;;12.40;99.90;;;;;;5024167;28;20205;-86
2023/11/06 10:17:39;;;;;;;11.55;3.05;;;12.40;99.90;;;;;;5025832;28;20216;-86
2023/11/06 10:20:13;;;;;;;4.43;2.35;;;12.50;99.90;;;;;;5036813;28;20193;-85
2023/11/06 10:22:56;;;;;;;6.07;2.33;;;12.50;99.90;;;;;;5032221;28;20200;-86
2023/11/06 10:25:27;;;;;;;7.13;2.70;;;12.40;99.90;;;;;;5038909;28;20216;-85
2023/11/06 10:27:54;;;;;;;5.32;2.10;;;12.50;99.90;;;;;;5022025;28;20231;-85
2023/11/06 10:33:21;;;;;;;7.80;2.50;;;12.30;99.90;;;;;;4271115;26;20231;-73
2023/11/06 10:35:49;;;;;;;5.28;2.55;;;12.30;99.90;;;;;;5003360;28;20193;-69
2023/11/06 10:38:33;;;;;;;9.90;3.03;;;12.30;99.90;;;;;;5014622;28;20203;-73
2023/11/06 10:41:01;;;;;;;13.05;3.00;;;12.30;99.90;;;;;;5019686;28;20228;-73
2023/11/06 10:43:29;;;;;;;12.55;3.20;;;12.40;99.90;;;;;;4999974;28;20654;-71
2023/11/06 10:46:03;;;;;;;8.35;2.50;;;12.50;99.90;;;;;;4996150;28;20205;-72
2023/11/06 10:48:34;;;;;;;8.25;2.83;;;12.40;99.90;;;;;;5001399;28;20195;-73
2023/11/06 10:51:02;;;;;;;16.17;2.55;;;12.40;99.90;;;;;;5003853;28;20543;-72
2023/11/06 10:53:33;;;;;;;5.05;2.00;;;12.40;99.90;;;;;;4998623;28;20228;-71
2023/11/06 10:56:03;;;;;;;11.85;3.05;;;12.50;99.90;;;;;;5001116;28;20198;-68
2023/11/06 10:58:31;;;;;;;7.65;2.33;;;12.50;99.90;;;;;;4999793;28;20567;-72
2023/11/06 11:01:00;;;;;;;12.52;3.88;;;12.60;99.90;;;;;;5002808;28;20268;-69
2023/11/06 11:03:29;;;;;;;3.28;1.90;;;12.60;99.90;;;;;;4997575;28;20304;-71
2023/11/06 11:05:57;;;;;;;10.15;3.25;;;12.70;99.90;;;;;;4995330;28;20209;-71
2023/11/06 11:08:26;;;;;;;6.72;2.60;;;12.60;99.90;;;;;;5004613;28;20223;-70
2023/11/06 11:10:56;;;;;;;8.40;3.25;;;12.70;99.90;;;;;;5001255;28;20201;-70
2023/11/06 11:13:23;;;;;;;9.73;2.30;;;12.70;99.90;;;;;;4998626;28;20558;-70
2023/11/06 11:15:50;;;;;;;8.45;2.28;;;12.60;99.90;;;;;;5001926;28;20288;-71
2023/11/06 11:18:18;;;;;;;8.63;3.20;;;12.60;99.90;;;;;;5002103;28;20595;-70
2023/11/06 11:20:52;;;;;;;7.82;2.33;;;12.70;99.90;;;;;;5004248;28;20212;-71
2023/11/06 11:23:37;;;;;;;7.35;3.10;;;12.90;99.90;;;;;;4996965;28;20272;-71
2023/11/06 11:26:08;;;;;;;8.35;2.10;;;13.00;99.90;;;;;;5005024;28;20197;-68
2023/11/06 11:29:09;;;;;;;6.70;2.55;;;13.10;99.90;;;;;;5001636;28;20676;-68
2023/11/06 11:31:39;;;;;;;9.63;3.17;;;13.20;99.90;;;;;;4993449;28;20216;-72
2023/11/06 11:34:07;;;;;;;12.40;2.95;;;13.40;99.90;;;;;;4999294;28;20272;-69
2023/11/06 11:36:35;;;;;;;4.10;1.88;;;13.30;99.90;;;;;;5013058;28;20279;-70
2023/11/06 11:39:06;;;;;;;9.60;4.00;;;13.40;99.90;;;;;;4998801;28;20207;-69
2023/11/06 11:41:34;;;;;;;7.32;3.08;;;13.50;99.90;;;;;;5001451;28;20232;-69
2023/11/06 11:44:10;;;;;;;5.93;2.10;;;13.50;99.90;;;;;;4997860;28;20217;-69
2023/11/06 11:46:54;;;;;;;8.23;2.55;;;13.40;99.90;;;;;;5003905;28;20845;-71
2023/11/06 11:49:44;;;;;;;10.13;2.25;;;13.40;99.90;;;;;;4995353;28;20198;-69
2023/11/06 11:52:16;;;;;;;6.00;1.85;;;13.30;99.90;;;;;;4997227;28;20555;-69
2023/11/06 11:54:43;;;;;;;6.80;2.40;;;13.50;99.90;;;;;;4995113;28;20229;-67
2023/11/06 11:57:12;;;;;;;6.53;2.80;;;13.50;99.90;;;;;;5001208;28;20280;-70
2023/11/06 11:59:49;;;;;;;4.70;1.95;;;13.50;99.90;;;;;;4997440;28;20205;-72
2023/11/06 12:02:27;;;;;;;10.38;2.88;;;13.50;99.90;;;;;;4996901;28;20236;-70
2023/11/06 12:04:56;;;;;;;4.72;1.88;;;13.30;99.90;;;;;;4998484;28;20220;-70
2023/11/06 12:07:23;;;;;;;5.32;1.90;;;13.40;99.90;;;;;;4995254;28;20197;-71
2023/11/06 12:09:51;;;;;;;9.13;1.90;;;13.60;99.90;;;;;;5005116;28;20205;-70
2023/11/06 12:12:25;;;;;;;8.05;2.65;;;13.50;99.90;;;;;;4996015;28;20674;-71
2023/11/06 12:14:53;;;;;;;8.65;2.30;;;13.30;99.90;;;;;;4999865;28;20233;-70
2023/11/06 12:17:31;;;;;;;6.60;2.13;;;13.20;99.90;;;;;;4996707;28;20203;-69
2023/11/06 12:20:00;;;;;;;6.75;1.95;;;13.20;99.90;;;;;;4998762;28;20288;-72
2023/11/06 12:22:28;;;;;;;4.75;1.98;;;13.20;99.90;;;;;;4996215;28;20283;-70
2023/11/06 12:24:56;;;;;;;7.97;3.08;;;13.20;99.90;;;;;;4999125;28;20217;-70
2023/11/06 12:27:34;;;;;;;11.32;3.25;;;13.10;99.90;;;;;;4994081;28;20200;-69
2023/11/06 12:30:01;;;;;;;8.52;2.00;;;13.00;99.90;;;;;;4996197;28;20204;-71
2023/11/06 12:32:29;;;;;;;10.27;1.88;;;12.90;99.90;;;;;;4993761;28;20209;-71
2023/11/06 12:35:14;;;;;;;4.90;2.35;;;12.80;99.90;;;;;;4995393;28;20252;-70
2023/11/06 12:37:48;;;;;;;10.40;3.17;;;12.80;99.90;;;;;;4999876;28;20201;-71
2023/11/06 12:40:16;;;;;;;6.97;2.10;;;12.80;99.90;;;;;;5005182;28;20219;-69
2023/11/06 12:42:45;;;;;;;10.05;2.30;;;12.90;99.90;;;;;;4995254;28;20288;-68
2023/11/06 12:45:30;;;;;;;8.25;2.53;;;12.90;99.90;;;;;;4998320;28;20225;-71
2023/11/06 12:47:57;;;;;;;24.83;11.32;;;13.10;99.90;;;;;;4997086;28;20206;-68
2023/11/06 12:50:24;;;;;;;13.35;6.05;;;13.20;99.90;;;;;;4999146;28;20207;-69
2023/11/06 12:52:52;;;;;;;7.05;2.92;;;13.30;99.90;;;;;;5000144;28;20201;-71
2023/11/06 12:55:19;;;;;;;7.65;2.92;;;13.50;99.90;;;;;;5012416;28;20311;-70
2023/11/06 12:57:47;;;;;;;9.05;3.85;;;13.40;99.90;;;;;;5008808;28;20557;-70
2023/11/06 13:00:22;;;;;;;9.25;2.88;;;13.10;99.90;;;;;;5007446;28;20196;-68
2023/11/06 13:02:50;;;;;;;7.28;2.55;;;13.00;99.90;;;;;;5001227;28;20573;-71
2023/11/06 13:05:20;;;;;;;10.65;2.70;;;13.00;99.90;;;;;;5001694;28;20249;-69
2023/11/06 13:07:50;;;;;;;14.23;3.95;;;12.90;99.90;;;;;;5007783;28;20275;-71
2023/11/06 13:10:18;;;;;;;15.88;5.80;;;13.00;99.90;;;;;;5010097;28;20648;-68
2023/11/06 13:12:47;;;;;;;5.47;2.22;;;13.00;99.90;;;;;;5006095;28;20197;-70
2023/11/06 13:15:14;;;;;;;8.65;2.33;;;13.00;99.90;;;;;;5008611;28;20246;-70
2023/11/06 13:17:42;;;;;;;7.70;2.05;;;12.90;99.90;;;;;;5005178;28;20291;-68
2023/11/06 13:20:24;;;;;;;8.52;2.55;;;12.70;99.90;;;;;;5011464;28;20201;-67
2023/11/06 13:22:53;;;;;;;10.70;2.67;;;12.70;99.90;;;;;;5000703;28;20208;-69